createdAt,value
2023-02-18T00:10:28.211Z,13.60
2023-02-18T00:22:28.732Z,12.10
2023-02-18T00:34:29.182Z,12.80
2023-02-18T00:46:29.625Z,11.80
2023-02-18T00:58:30.055Z,11.80
2023-02-18T01:10:30.518Z,11.60
2023-02-18T01:22:30.980Z,11.40
2023-02-18T01:34:31.415Z,10.40
2023-02-18T01:46:31.877Z,11.30
2023-02-18T01:58:32.338Z,11.80
2023-02-18T02:10:32.814Z,10.40
2023-02-18T02:22:33.204Z,9.70
2023-02-18T02:34:33.658Z,10.30
2023-02-18T02:46:34.157Z,8.60
2023-02-18T02:58:34.606Z,9.30
2023-02-18T03:10:35.040Z,9.10
2023-02-18T03:22:35.487Z,8.30
2023-02-18T03:34:35.938Z,7.70
2023-02-18T03:46:36.375Z,7.20
2023-02-18T03:58:36.817Z,6.60
2023-02-18T04:10:37.306Z,6.00
2023-02-18T04:22:37.747Z,6.20
2023-02-18T04:34:38.230Z,5.50
2023-02-18T04:46:38.630Z,5.60
2023-02-18T04:58:39.074Z,6.90
2023-02-18T05:10:39.515Z,6.90
2023-02-18T05:22:40.057Z,6.00
2023-02-18T05:34:40.450Z,7.30
2023-02-18T05:46:40.999Z,9.60
2023-02-18T05:58:41.352Z,8.90
2023-02-18T06:10:41.857Z,13.70
2023-02-18T06:22:42.300Z,23.10
2023-02-18T06:34:42.743Z,13.10
2023-02-18T06:46:43.205Z,15.10
2023-02-18T06:58:43.612Z,9.30
2023-02-18T07:10:44.062Z,8.70
2023-02-18T07:22:44.505Z,15.90
2023-02-18T07:34:44.975Z,17.10
2023-02-18T07:46:47.382Z,25.80
2023-02-18T07:58:45.900Z,29.10
2023-02-18T08:10:46.306Z,8.40
2023-02-18T08:22:46.798Z,4.80
2023-02-18T08:34:47.244Z,7.10
2023-02-18T08:46:47.762Z,1.30
2023-02-18T08:58:48.152Z,1.70
2023-02-18T09:10:48.624Z,0.70
2023-02-18T09:22:49.061Z,3.20
2023-02-18T09:34:49.514Z,1.10
2023-02-18T09:46:49.955Z,1.20
2023-02-18T09:58:50.409Z,1.80
2023-02-18T10:10:50.931Z,0.70
2023-02-18T10:22:51.286Z,0.60
2023-02-18T10:34:51.784Z,2.50
2023-02-18T10:46:52.317Z,1.20
2023-02-18T10:58:52.697Z,0.30
2023-02-18T11:10:53.168Z,1.10
2023-02-18T11:22:53.611Z,1.60
2023-02-18T11:34:54.066Z,1.20
2023-02-18T11:46:54.555Z,0.80
2023-02-18T11:58:54.990Z,1.40
2023-02-18T12:10:55.440Z,0.60
2023-02-18T12:22:55.897Z,7.80
2023-02-18T12:34:56.375Z,5.00
2023-02-18T12:46:56.825Z,1.80
2023-02-18T12:58:57.266Z,1.50
2023-02-18T13:10:57.726Z,0.40
2023-02-18T13:22:58.212Z,0.90
2023-02-18T13:34:58.604Z,1.30
2023-02-18T13:46:59.039Z,1.20
2023-02-18T13:58:59.514Z,1.30
2023-02-18T14:10:59.970Z,1.30
2023-02-18T14:23:00.463Z,1.60
2023-02-18T14:35:00.929Z,2.30
2023-02-18T14:47:01.345Z,1.50
2023-02-18T14:59:01.858Z,2.40
2023-02-18T15:11:02.289Z,2.80
2023-02-18T15:23:02.753Z,2.80
2023-02-18T15:35:03.173Z,5.40
2023-02-18T15:47:03.633Z,5.90
2023-02-18T15:59:04.090Z,4.90
2023-02-18T16:11:04.529Z,9.00
2023-02-18T16:23:04.981Z,11.90
2023-02-18T16:35:05.462Z,8.70
2023-02-18T16:47:05.916Z,9.00
2023-02-18T16:59:06.318Z,10.60
2023-02-18T17:11:06.837Z,8.20
2023-02-18T17:23:07.324Z,13.80
2023-02-18T17:35:07.727Z,13.60
2023-02-18T17:47:08.177Z,9.30
2023-02-18T17:59:08.624Z,10.50
2023-02-18T18:11:09.446Z,17.30
2023-02-18T18:23:09.534Z,17.70
2023-02-18T18:35:09.988Z,21.20
2023-02-18T18:47:10.438Z,22.50
2023-02-18T18:59:10.904Z,20.60
2023-02-18T19:11:11.624Z,23.60
2023-02-18T19:23:11.836Z,20.40
2023-02-18T19:35:12.253Z,18.60
2023-02-18T19:47:12.703Z,18.00
2023-02-18T19:59:13.168Z,17.40
2023-02-18T20:11:13.600Z,10.80
2023-02-18T20:23:14.054Z,10.60
2023-02-18T20:35:14.526Z,3.30
2023-02-18T20:47:14.976Z,1.70
2023-02-18T20:59:15.441Z,1.20
2023-02-18T21:11:15.878Z,1.00
2023-02-18T21:23:16.366Z,1.60
2023-02-18T21:35:16.805Z,1.90
2023-02-18T21:47:17.272Z,2.10
2023-02-18T21:59:17.717Z,1.50
2023-02-18T22:11:18.191Z,2.80
2023-02-18T22:23:18.614Z,4.40
2023-02-18T22:35:19.045Z,3.60
2023-02-18T22:47:19.544Z,4.50
2023-02-18T22:59:20.000Z,5.10
2023-02-18T23:11:20.433Z,3.60
2023-02-18T23:23:20.864Z,1.70
2023-02-18T23:35:21.335Z,2.20
2023-02-18T23:47:21.793Z,0.90
2023-02-18T23:59:22.230Z,0.90
